Time;durP1;ratioP1;P1;durP2;ratioP2;P2;SDS_P1;SDS_P2;PMS_P1;PMS_P2;Temp;Humidity;BMP_temperature;BMP_pressure;BME280_temperature;BME280_humidity;BME280_pressure;Samples;Min_cycle;Max_cycle;Signal;HPM_P1;HPM_P2
2023/11/24 00:01:26;;;;;;;22.80;8.80;;;;;;;2.60;75.98;99768.11;107613;1251;111225;-60
2023/11/24 00:03:58;;;;;;;13.70;7.40;;;;;;;2.63;75.97;99754.31;107580;1254;109170;-61
2023/11/24 00:06:28;;;;;;;14.90;7.20;;;;;;;2.65;75.93;99746.55;107607;1251;107242;-61
2023/11/24 00:08:56;;;;;;;15.80;7.10;;;;;;;2.69;75.92;99737.77;107554;1251;97704;-62
2023/11/24 00:11:26;;;;;;;5.10;4.00;;;;;;;2.81;76.08;99733.03;107688;1251;97960;-62
2023/11/24 00:13:54;;;;;;;6.10;3.60;;;;;;;2.98;76.14;99730.48;107522;1251;111887;-62
2023/11/24 00:16:22;;;;;;;9.10;3.80;;;;;;;3.13;75.77;99729.76;107593;1251;110140;-62
2023/11/24 00:18:51;;;;;;;6.10;2.90;;;;;;;3.34;75.47;99726.80;107582;1253;108505;-62
2023/11/24 00:21:20;;;;;;;7.10;2.70;;;;;;;3.57;74.45;99727.92;107585;1251;97925;-62
2023/11/24 00:23:48;;;;;;;4.80;2.20;;;;;;;3.85;73.41;99727.77;107643;1251;97763;-61
2023/11/24 00:26:20;;;;;;;5.10;2.30;;;;;;;4.14;72.56;99726.58;107601;1251;111706;-62
2023/11/24 00:28:56;;;;;;;4.40;2.60;;;;;;;4.48;70.60;99726.91;107603;1254;112319;-62
2023/11/24 00:31:25;;;;;;;5.20;2.30;;;;;;;4.79;68.78;99721.05;107589;1251;108322;-62
2023/11/24 00:33:55;;;;;;;3.20;2.10;;;;;;;5.05;68.85;99720.69;107622;1251;97875;-62
2023/11/24 00:36:24;;;;;;;7.10;2.40;;;;;;;5.20;67.91;99714.48;107633;1251;97847;-63
2023/11/24 00:38:52;;;;;;;4.50;2.20;;;;;;;5.32;67.33;99710.55;107605;1251;111478;-61
2023/11/24 00:41:22;;;;;;;4.20;2.40;;;;;;;5.40;67.10;99709.48;107495;1254;109696;-61
2023/11/24 00:43:51;;;;;;;5.50;2.10;;;;;;;5.47;66.25;99708.18;107646;1251;107488;-62
2023/11/24 00:46:21;;;;;;;3.40;2.10;;;;;;;5.53;64.92;99709.31;107504;1251;97847;-62
2023/11/24 00:48:51;;;;;;;5.70;2.10;;;;;;;5.62;64.98;99709.43;107684;1251;97854;-62
2023/11/24 00:51:20;;;;;;;3.30;2.00;;;;;;;5.71;63.47;99708.70;107673;1257;112078;-61
2023/11/24 00:53:48;;;;;;;5.10;2.40;;;;;;;5.80;62.34;99698.25;107700;1251;109763;-61
2023/11/24 00:56:17;;;;;;;6.30;2.20;;;;;;;5.88;62.11;99698.65;107454;1253;107171;-62
2023/11/24 00:58:45;;;;;;;3.00;1.70;;;;;;;5.95;61.73;99696.16;107619;1252;97856;-62
2023/11/24 01:01:13;;;;;;;11.50;6.80;;;;;;;6.02;60.47;99689.48;107622;1251;98358;-62
2023/11/24 01:03:41;;;;;;;5.10;1.70;;;;;;;6.10;60.27;99685.42;107680;1251;111075;-61
2023/11/24 01:06:10;;;;;;;3.90;1.40;;;;;;;6.17;59.34;99690.86;107621;1251;109966;-61
2023/11/24 01:08:39;;;;;;;2.70;1.20;;;;;;;6.27;58.16;99682.67;107386;1254;109097;-61
2023/11/24 01:11:08;;;;;;;2.20;1.30;;;;;;;6.33;59.00;99678.61;107625;1254;97816;-61
2023/11/24 01:13:38;;;;;;;3.30;1.20;;;;;;;6.36;57.96;99674.45;107669;1254;97810;-61
2023/11/24 01:16:08;;;;;;;1.40;1.10;;;;;;;6.41;55.81;99674.13;107420;1253;111148;-61
2023/11/24 01:18:36;;;;;;;1.80;1.50;;;;;;;6.48;55.86;99667.86;107675;1251;108121;-63
2023/11/24 01:21:07;;;;;;;2.70;1.10;;;;;;;6.51;56.04;99660.80;107425;1251;108315;-62
2023/11/24 01:23:35;;;;;;;4.60;1.20;;;;;;;6.54;55.27;99651.81;107600;1257;97910;-61
2023/11/24 01:26:05;;;;;;;5.30;2.10;;;;;;;6.62;54.16;99644.41;107633;1254;97836;-63
2023/11/24 01:28:34;;;;;;;5.60;1.30;;;;;;;6.70;53.94;99639.84;107590;1254;111808;-61
2023/11/24 01:31:02;;;;;;;4.90;1.30;;;;;;;6.75;53.84;99634.06;107639;1251;110157;-61
2023/11/24 01:33:31;;;;;;;1.40;1.00;;;;;;;6.78;54.34;99628.98;107642;1251;107155;-62
2023/11/24 01:36:00;;;;;;;4.10;1.00;;;;;;;6.80;53.38;99628.50;107586;1251;97823;-60
2023/11/24 01:38:29;;;;;;;1.90;0.80;;;;;;;6.84;52.65;99616.23;107616;1251;98521;-61
2023/11/24 01:40:57;;;;;;;3.10;0.90;;;;;;;6.89;52.39;99602.36;107609;1251;111939;-61
2023/11/24 01:43:26;;;;;;;1.30;0.70;;;;;;;6.93;51.73;99597.91;107580;1256;109688;-62
2023/11/24 01:45:54;;;;;;;2.80;1.40;;;;;;;6.97;52.02;99596.86;107463;1251;108311;-61
2023/11/24 01:48:24;;;;;;;2.00;1.00;;;;;;;6.99;51.48;99596.61;107589;1256;97847;-61
2023/11/24 01:50:52;;;;;;;4.10;0.90;;;;;;;7.01;50.91;99587.70;107623;1252;97732;-62
2023/11/24 01:53:21;;;;;;;1.50;0.90;;;;;;;7.02;51.64;99574.23;107599;1251;111291;-61
2023/11/24 01:55:50;;;;;;;1.90;1.00;;;;;;;7.01;51.59;99562.08;107603;1251;108840;-60
2023/11/24 01:58:18;;;;;;;1.40;0.80;;;;;;;7.01;51.00;99551.67;107401;1254;108659;-61
2023/11/24 02:00:47;;;;;;;3.00;1.00;;;;;;;7.01;51.44;99542.09;107456;1253;97798;-62
2023/11/24 02:03:15;;;;;;;1.10;0.70;;;;;;;7.00;51.61;99543.09;107476;1251;98367;-62
2023/11/24 02:05:45;;;;;;;1.50;1.00;;;;;;;6.99;51.11;99541.38;107544;1253;110888;-62
2023/11/24 02:08:14;;;;;;;1.00;0.90;;;;;;;7.02;50.97;99531.27;107610;1251;109658;-62
2023/11/24 02:10:44;;;;;;;2.10;1.10;;;;;;;7.01;51.22;99525.11;107652;1251;107587;-62
2023/11/24 02:13:13;;;;;;;1.90;1.20;;;;;;;7.01;51.55;99520.83;107589;1251;97909;-61
2023/11/24 02:15:41;;;;;;;8.80;1.20;;;;;;;7.00;51.69;99518.61;107483;1251;98441;-61
2023/11/24 02:18:09;;;;;;;7.50;1.20;;;;;;;6.98;52.14;99521.13;107631;1251;110692;-61
2023/11/24 02:20:38;;;;;;;1.80;1.30;;;;;;;6.98;51.89;99512.45;107647;1253;109657;-63
2023/11/24 02:23:07;;;;;;;4.40;1.50;;;;;;;6.98;51.46;99508.70;107576;1251;107585;-60
2023/11/24 02:25:35;;;;;;;2.60;1.20;;;;;;;6.99;51.29;99498.80;107618;1251;97848;-61
2023/11/24 02:28:03;;;;;;;3.80;1.40;;;;;;;6.97;51.83;99495.80;107693;1251;97820;-60
2023/11/24 02:30:31;;;;;;;3.60;1.30;;;;;;;6.95;52.35;99496.66;107653;1251;110595;-60
2023/11/24 02:33:00;;;;;;;2.50;1.30;;;;;;;6.93;52.10;99504.15;107549;1251;109193;-60
2023/11/24 02:35:29;;;;;;;1.90;1.00;;;;;;;6.92;51.97;99496.94;107574;1253;108164;-61
2023/11/24 02:37:57;;;;;;;2.00;1.20;;;;;;;6.90;52.24;99488.91;107439;1252;97860;-60
2023/11/24 02:40:27;;;;;;;2.30;1.30;;;;;;;6.88;51.59;99492.80;107686;1251;98397;-62
2023/11/24 02:42:56;;;;;;;1.90;1.50;;;;;;;6.92;51.14;99490.66;107588;1253;112344;-63
2023/11/24 02:45:25;;;;;;;3.00;1.10;;;;;;;6.96;51.49;99488.73;107687;1253;109244;-61
2023/11/24 02:47:54;;;;;;;1.60;1.20;;;;;;;6.98;50.62;99487.09;107586;1251;107669;-62
2023/11/24 02:50:22;;;;;;;4.00;1.10;;;;;;;7.00;50.82;99491.13;107582;1251;97844;-62
2023/11/24 02:52:50;;;;;;;1.20;0.80;;;;;;;7.02;51.16;99488.82;107647;1253;98340;-61
2023/11/24 02:55:18;;;;;;;1.60;0.90;;;;;;;7.05;50.42;99481.60;107625;1251;110929;-61
2023/11/24 02:57:51;;;;;;;3.00;0.80;;;;;;;7.11;49.27;99478.61;107640;1254;108988;-62
2023/11/24 03:00:20;;;;;;;1.30;0.90;;;;;;;7.21;49.00;99463.54;107671;1252;107072;-60
2023/11/24 03:02:49;;;;;;;1.10;0.80;;;;;;;7.26;48.55;99463.97;107618;1253;97907;-61
2023/11/24 03:05:17;;;;;;;2.30;0.80;;;;;;;7.29;48.45;99467.39;107597;1251;97739;-61
2023/11/24 03:07:45;;;;;;;1.70;0.90;;;;;;;7.32;49.02;99465.74;107635;1253;111865;-61
2023/11/24 03:10:14;;;;;;;2.10;0.80;;;;;;;7.32;49.23;99460.54;107621;1251;109693;-60
2023/11/24 03:12:42;;;;;;;0.90;0.70;;;;;;;7.30;49.39;99465.15;107575;1251;108343;-62
2023/11/24 03:15:11;;;;;;;1.80;1.10;;;;;;;7.27;49.85;99464.75;107591;1255;97826;-61
2023/11/24 03:17:40;;;;;;;1.50;1.00;;;;;;;7.26;48.96;99454.84;107604;1251;97841;-61
2023/11/24 03:20:11;;;;;;;3.20;1.00;;;;;;;7.28;48.85;99448.14;107424;1252;111887;-60
2023/11/24 03:22:40;;;;;;;3.40;1.20;;;;;;;7.26;48.64;99456.52;107640;1253;109451;-61
2023/11/24 03:25:10;;;;;;;2.40;1.10;;;;;;;7.26;49.27;99456.84;107666;1252;107270;-60
2023/11/24 03:27:38;;;;;;;1.20;0.80;;;;;;;7.26;48.86;99461.27;107586;1253;97840;-61
2023/11/24 03:30:08;;;;;;;1.40;1.20;;;;;;;7.28;48.57;99460.00;107502;1256;97932;-60
2023/11/24 03:32:38;;;;;;;1.20;0.90;;;;;;;7.32;48.04;99456.04;107438;1251;112186;-60
2023/11/24 03:35:08;;;;;;;5.00;0.90;;;;;;;7.34;48.37;99453.36;107625;1254;109578;-60
2023/11/24 03:37:37;;;;;;;3.30;1.10;;;;;;;7.35;48.85;99452.89;107685;1249;107678;-60
2023/11/24 03:40:06;;;;;;;1.20;0.90;;;;;;;7.35;48.51;99452.52;107598;1251;97883;-61
2023/11/24 03:42:36;;;;;;;1.00;0.80;;;;;;;7.39;48.50;99450.80;107629;1250;97813;-62
2023/11/24 03:45:06;;;;;;;1.40;0.90;;;;;;;7.44;48.49;99447.85;107654;1253;110917;-62
2023/11/24 03:47:35;;;;;;;4.80;1.00;;;;;;;7.43;48.97;99439.91;107607;1252;108198;-61
2023/11/24 03:50:04;;;;;;;6.30;1.30;;;;;;;7.42;48.95;99445.48;107612;1253;108332;-61
2023/11/24 03:52:33;;;;;;;2.80;0.90;;;;;;;7.44;49.24;99433.58;107705;1253;98486;-62
2023/11/24 03:55:01;;;;;;;2.90;1.10;;;;;;;7.44;49.22;99428.52;107628;1251;97844;-61
2023/11/24 03:57:30;;;;;;;1.60;0.90;;;;;;;7.48;49.18;99428.54;107618;1251;110836;-63
2023/11/24 03:59:58;;;;;;;11.80;1.20;;;;;;;7.48;49.40;99427.77;107448;1251;109323;-62
2023/11/24 04:02:26;;;;;;;7.10;1.00;;;;;;;7.51;49.34;99421.08;107385;1253;109412;-62
2023/11/24 04:04:55;;;;;;;1.70;0.90;;;;;;;7.53;49.53;99412.86;107623;1253;97928;-61
2023/11/24 04:07:25;;;;;;;1.30;0.90;;;;;;;7.53;49.47;99407.47;107659;1253;97846;-62
2023/11/24 04:09:53;;;;;;;3.00;1.30;;;;;;;7.52;49.64;99404.68;107602;1251;111858;-60
2023/11/24 04:12:21;;;;;;;2.00;1.00;;;;;;;7.56;49.20;99401.69;107628;1251;109648;-62
2023/11/24 04:14:50;;;;;;;1.10;0.70;;;;;;;7.57;49.38;99394.84;107482;1250;108646;-60
2023/11/24 04:17:18;;;;;;;2.40;1.20;;;;;;;7.56;49.51;99393.49;107645;1252;98984;-61
2023/11/24 04:19:46;;;;;;;2.60;1.00;;;;;;;7.59;49.60;99400.69;107632;1251;97948;-61
2023/11/24 04:22:14;;;;;;;2.10;0.90;;;;;;;7.58;49.73;99398.45;107677;1250;111790;-63
2023/11/24 04:24:43;;;;;;;4.80;0.90;;;;;;;7.62;49.58;99403.11;107637;1251;109936;-62
2023/11/24 04:27:11;;;;;;;2.20;0.70;;;;;;;7.67;49.21;99408.13;107623;1251;108096;-62
2023/11/24 04:29:40;;;;;;;0.60;0.60;;;;;;;7.71;49.29;99405.13;107499;1251;97834;-60
2023/11/24 04:32:09;;;;;;;1.20;0.70;;;;;;;7.72;49.54;99410.83;107675;1253;97743;-60
2023/11/24 04:34:38;;;;;;;0.80;0.50;;;;;;;7.74;49.03;99417.96;107486;1257;111973;-63
2023/11/24 04:37:06;;;;;;;3.00;0.80;;;;;;;7.78;49.02;99423.61;107662;1252;111273;-62
2023/11/24 04:39:35;;;;;;;1.20;0.70;;;;;;;7.80;49.20;99422.30;107651;1251;107333;-62
2023/11/24 04:42:04;;;;;;;1.00;0.70;;;;;;;7.83;49.06;99414.24;107664;1251;97854;-60
2023/11/24 04:44:33;;;;;;;2.70;0.70;;;;;;;7.85;49.10;99403.32;107675;1251;98536;-63
2023/11/24 04:47:03;;;;;;;2.80;0.60;;;;;;;7.86;48.83;99409.52;107598;1253;112279;-62
2023/11/24 04:49:31;;;;;;;4.80;1.00;;;;;;;7.87;49.37;99415.07;107618;1251;109122;-64
2023/11/24 04:52:00;;;;;;;1.10;0.80;;;;;;;7.84;49.38;99426.21;107621;1251;106981;-62
2023/11/24 04:54:28;;;;;;;1.20;1.00;;;;;;;7.83;49.10;99423.33;107572;1251;97944;-62
2023/11/24 04:56:57;;;;;;;3.50;1.20;;;;;;;7.83;49.07;99423.99;107665;1251;98339;-62
2023/11/24 04:59:27;;;;;;;8.00;1.10;;;;;;;7.82;49.37;99433.02;107571;1253;112068;-61
2023/11/24 05:01:55;;;;;;;8.20;2.10;;;;;;;7.84;49.20;99434.80;107608;1252;109920;-62
2023/11/24 05:04:24;;;;;;;2.30;0.90;;;;;;;7.88;48.60;99432.27;107619;1253;107449;-63
2023/11/24 05:06:52;;;;;;;1.00;0.90;;;;;;;7.95;48.24;99423.40;107648;1253;97877;-61
2023/11/24 05:09:21;;;;;;;3.80;0.70;;;;;;;8.01;48.13;99422.79;107653;1251;97823;-61
2023/11/24 05:11:49;;;;;;;1.30;0.90;;;;;;;8.07;47.84;99418.66;107657;1252;111386;-61
2023/11/24 05:14:17;;;;;;;7.00;0.80;;;;;;;8.08;48.13;99418.40;107645;1255;107992;-60
2023/11/24 05:16:45;;;;;;;4.90;3.20;;;;;;;8.07;48.10;99423.86;107615;1251;108412;-60
2023/11/24 05:19:14;;;;;;;5.10;1.10;;;;;;;8.07;48.18;99426.30;107475;1253;97852;-60
2023/11/24 05:21:43;;;;;;;5.90;1.00;;;;;;;8.07;48.15;99415.59;107598;1253;98383;-62
2023/11/24 05:24:12;;;;;;;6.40;0.90;;;;;;;8.07;48.46;99409.39;107614;1254;111423;-62
2023/11/24 05:26:40;;;;;;;1.10;0.80;;;;;;;8.06;48.33;99413.59;107598;1253;109677;-62
2023/11/24 05:29:08;;;;;;;1.80;1.00;;;;;;;8.04;48.26;99414.63;107611;1251;108296;-62
2023/11/24 05:31:37;;;;;;;2.00;1.70;;;;;;;8.03;48.36;99410.82;107590;1253;97864;-63
2023/11/24 05:34:06;;;;;;;2.50;1.30;;;;;;;8.02;48.74;99402.49;107640;1251;98001;-63
2023/11/24 05:36:34;;;;;;;6.80;1.30;;;;;;;8.03;48.67;99392.68;107608;1251;110476;-61
2023/11/24 05:39:03;;;;;;;1.70;1.30;;;;;;;8.01;48.69;99399.96;107631;1252;109554;-61
2023/11/24 05:41:31;;;;;;;3.50;1.00;;;;;;;8.02;48.69;99397.23;107617;1252;108055;-62
2023/11/24 05:44:00;;;;;;;2.30;1.10;;;;;;;8.03;48.67;99400.42;107615;1251;97706;-62
2023/11/24 05:46:28;;;;;;;3.30;0.90;;;;;;;8.05;48.69;99401.20;107584;1253;97853;-62
2023/11/24 05:48:57;;;;;;;1.90;1.10;;;;;;;8.04;48.84;99407.55;107480;1253;111413;-62
2023/11/24 05:51:25;;;;;;;3.20;1.20;;;;;;;8.03;49.04;99415.85;107596;1253;109306;-61
2023/11/24 05:53:55;;;;;;;4.50;1.60;;;;;;;8.02;48.96;99418.77;107688;1250;108448;-62
2023/11/24 05:56:24;;;;;;;3.70;1.70;;;;;;;8.01;49.08;99423.52;107626;1251;98469;-61
2023/11/24 05:58:52;;;;;;;7.10;3.70;;;;;;;8.01;49.11;99425.84;107600;1249;97816;-62
2023/11/24 06:01:20;;;;;;;15.90;4.00;;;;;;;8.02;49.17;99421.13;107554;1253;111197;-61
2023/11/24 06:03:48;;;;;;;5.30;1.40;;;;;;;8.04;49.15;99417.30;107603;1251;109977;-62
2023/11/24 06:06:18;;;;;;;1.40;1.10;;;;;;;8.07;49.03;99416.36;107608;1251;108564;-61
2023/11/24 06:08:46;;;;;;;6.90;1.80;;;;;;;8.08;49.14;99412.87;107635;1255;98007;-61
2023/11/24 06:11:17;;;;;;;6.20;1.80;;;;;;;8.11;48.73;99403.60;107606;1251;97822;-61
2023/11/24 06:13:46;;;;;;;7.80;2.00;;;;;;;8.12;48.96;99406.02;107610;1251;110676;-62
2023/11/24 06:16:15;;;;;;;7.00;1.80;;;;;;;8.14;48.75;99410.09;107647;1251;109804;-62
2023/11/24 06:18:44;;;;;;;4.80;1.80;;;;;;;8.13;48.84;99402.51;107616;1251;108681;-61
2023/11/24 06:21:12;;;;;;;3.30;1.90;;;;;;;8.15;48.84;99394.27;107568;1253;97846;-61
2023/11/24 06:23:45;;;;;;;2.80;1.90;;;;;;;8.14;48.97;99389.87;107667;1251;97857;-63
2023/11/24 06:26:13;;;;;;;5.10;2.20;;;;;;;8.16;48.76;99398.95;107628;1255;110636;-61
2023/11/24 06:28:42;;;;;;;7.10;1.40;;;;;;;8.16;48.97;99398.45;107565;1253;109508;-60
2023/11/24 06:31:16;;;;;;;5.40;1.50;;;;;;;8.16;48.96;99394.20;107572;1253;108313;-60
2023/11/24 06:33:44;;;;;;;4.00;1.40;;;;;;;8.16;48.88;99393.26;107488;1253;97986;-60
2023/11/24 06:36:13;;;;;;;7.50;1.50;;;;;;;8.17;49.07;99395.20;107658;1251;97719;-61
2023/11/24 06:38:41;;;;;;;5.20;1.60;;;;;;;8.18;48.68;99393.14;107626;1251;111262;-59
2023/11/24 06:41:09;;;;;;;6.40;2.00;;;;;;;8.18;49.22;99382.86;107674;1255;109678;-60
2023/11/24 06:43:38;;;;;;;10.00;1.90;;;;;;;8.19;49.33;99384.45;107576;1251;108539;-60
2023/11/24 06:46:06;;;;;;;6.20;2.10;;;;;;;8.20;49.45;99374.92;107720;1253;97942;-60
2023/11/24 06:48:35;;;;;;;13.70;2.70;;;;;;;8.20;49.48;99377.36;107611;1251;97713;-61
2023/11/24 06:51:05;;;;;;;4.10;2.10;;;;;;;8.21;49.52;99372.06;107636;1251;111510;-61
2023/11/24 06:53:33;;;;;;;4.00;1.90;;;;;;;8.23;49.55;99367.57;107530;1251;109638;-60
2023/11/24 06:56:02;;;;;;;3.30;2.00;;;;;;;8.24;48.83;99361.22;107632;1251;108409;-62
2023/11/24 06:58:30;;;;;;;10.10;3.30;;;;;;;8.27;48.23;99365.02;107501;1251;97856;-62
2023/11/24 07:00:59;;;;;;;10.00;2.50;;;;;;;8.33;47.94;99358.55;107675;1255;98370;-63
2023/11/24 07:03:28;;;;;;;5.10;1.60;;;;;;;8.38;47.59;99360.17;107562;1252;112264;-62
2023/11/24 07:05:57;;;;;;;5.00;1.70;;;;;;;8.45;47.33;99358.58;107593;1253;109475;-62
2023/11/24 07:08:26;;;;;;;9.10;2.60;;;;;;;8.52;47.43;99357.25;107698;1252;107859;-61
2023/11/24 07:10:54;;;;;;;7.70;2.90;;;;;;;8.57;46.99;99352.42;107575;1252;97849;-62
2023/11/24 07:13:22;;;;;;;1.80;1.50;;;;;;;8.61;47.49;99347.52;107623;1253;98378;-63
2023/11/24 07:15:50;;;;;;;5.80;3.00;;;;;;;8.63;47.49;99345.19;107454;1253;113115;-64
2023/11/24 07:18:19;;;;;;;5.50;2.40;;;;;;;8.63;46.77;99350.85;107623;1255;108424;-62
2023/11/24 07:20:48;;;;;;;6.20;1.80;;;;;;;8.62;46.66;99348.25;107605;1251;108157;-61
2023/11/24 07:23:19;;;;;;;4.60;2.10;;;;;;;8.61;47.11;99347.98;107567;1251;98060;-62
2023/11/24 07:25:48;;;;;;;5.60;2.00;;;;;;;8.62;47.32;99347.42;107603;1251;97899;-61
2023/11/24 07:28:17;;;;;;;8.30;2.70;;;;;;;8.65;47.18;99344.09;107612;1252;110171;-62
2023/11/24 07:30:48;;;;;;;3.90;2.40;;;;;;;8.67;46.97;99345.48;107585;1251;108505;-62
2023/11/24 07:33:17;;;;;;;5.20;2.50;;;;;;;8.70;46.95;99347.88;107633;1251;108040;-62
2023/11/24 07:35:45;;;;;;;12.40;2.70;;;;;;;8.73;46.97;99346.05;107596;1250;97956;-62
2023/11/24 07:38:13;;;;;;;6.10;2.60;;;;;;;8.76;47.25;99346.66;107648;1250;97703;-62
2023/11/24 07:40:42;;;;;;;4.50;2.00;;;;;;;8.79;47.12;99346.58;107587;1251;112110;-62
2023/11/24 07:43:10;;;;;;;11.30;3.20;;;;;;;8.81;46.80;99343.84;107647;1251;109532;-61
2023/11/24 07:45:41;;;;;;;4.60;2.10;;;;;;;8.83;46.69;99342.78;107642;1251;108222;-61
2023/11/24 07:48:09;;;;;;;6.10;2.00;;;;;;;8.83;46.29;99346.38;107585;1252;97818;-62
2023/11/24 07:50:38;;;;;;;8.20;2.60;;;;;;;8.82;45.75;99347.58;107491;1253;97910;-62
2023/11/24 07:53:13;;;;;;;3.60;1.90;;;;;;;8.85;46.01;99344.10;107583;1253;111918;-63
2023/11/24 07:55:41;;;;;;;4.10;1.90;;;;;;;8.91;45.73;99342.61;107565;1252;109972;-62
2023/11/24 07:58:10;;;;;;;9.10;2.60;;;;;;;9.00;45.34;99337.56;107494;1254;106862;-62
2023/11/24 08:00:40;;;;;;;5.70;2.20;;;;;;;9.10;44.98;99333.48;107415;1252;97886;-63
2023/11/24 08:03:08;;;;;;;6.20;1.60;;;;;;;9.20;44.86;99326.86;107638;1251;97834;-60
2023/11/24 08:05:37;;;;;;;4.30;2.00;;;;;;;9.29;44.50;99328.13;107529;1257;111895;-62
2023/11/24 08:08:05;;;;;;;7.00;1.80;;;;;;;9.38;44.59;99324.14;107647;1251;109485;-63
2023/11/24 08:10:33;;;;;;;3.00;1.40;;;;;;;9.45;44.21;99327.17;107427;1256;107505;-62
2023/11/24 08:13:02;;;;;;;2.00;1.40;;;;;;;9.48;44.01;99328.38;107607;1253;97990;-61
2023/11/24 08:15:30;;;;;;;6.80;1.60;;;;;;;9.49;43.64;99330.27;107590;1253;98344;-60
2023/11/24 08:17:58;;;;;;;6.00;1.70;;;;;;;9.53;44.16;99330.77;107665;1251;111423;-62
2023/11/24 08:20:27;;;;;;;5.30;2.00;;;;;;;9.57;44.06;99329.58;107604;1251;109061;-62
2023/11/24 08:22:55;;;;;;;9.60;2.10;;;;;;;9.67;44.15;99325.35;107607;1251;108275;-62
2023/11/24 08:25:23;;;;;;;3.10;1.90;;;;;;;9.78;44.25;99326.65;107557;1252;97814;-61
2023/11/24 08:27:51;;;;;;;2.50;1.60;;;;;;;9.91;43.16;99321.28;107632;1253;98340;-62
2023/11/24 08:30:20;;;;;;;4.10;1.80;;;;;;;10.03;43.02;99316.20;107668;1251;111821;-61
2023/11/24 08:32:49;;;;;;;5.30;1.80;;;;;;;10.16;42.98;99307.63;107637;1251;109362;-61
2023/11/24 08:35:17;;;;;;;7.50;2.00;;;;;;;10.32;42.84;99296.59;107636;1252;108626;-62
2023/11/24 08:37:46;;;;;;;4.50;1.50;;;;;;;10.70;42.19;99291.84;107603;1255;98602;-62
2023/11/24 08:40:16;;;;;;;4.50;1.70;;;;;;;11.72;40.17;99286.63;107662;1251;97796;-62
2023/11/24 08:42:45;;;;;;;3.30;1.80;;;;;;;12.03;39.03;99266.91;107624;1251;111871;-62
2023/11/24 08:45:14;;;;;;;5.20;1.70;;;;;;;11.92;40.02;99270.73;107595;1251;108624;-63
2023/11/24 08:47:43;;;;;;;3.10;1.70;;;;;;;11.86;39.01;99268.52;107439;1253;106642;-63
2023/11/24 08:50:13;;;;;;;4.10;1.90;;;;;;;11.68;39.23;99261.05;107634;1251;97836;-63
2023/11/24 08:52:41;;;;;;;7.90;1.50;;;;;;;11.67;38.54;99261.77;107578;1254;97929;-62
2023/11/24 08:55:10;;;;;;;4.10;1.60;;;;;;;11.55;39.15;99256.17;107632;1251;111841;-63
2023/11/24 08:57:38;;;;;;;5.00;1.40;;;;;;;11.76;39.06;99245.80;107591;1251;109110;-63
2023/11/24 09:00:11;;;;;;;2.20;1.40;;;;;;;12.72;37.64;99239.43;107592;1251;108116;-62
2023/11/24 09:02:40;;;;;;;5.60;1.90;;;;;;;13.04;38.18;99230.69;107628;1251;97713;-61
2023/11/24 09:05:09;;;;;;;5.90;1.50;;;;;;;13.02;37.36;99224.36;107655;1251;97861;-62
2023/11/24 09:07:38;;;;;;;3.70;1.90;;;;;;;13.25;38.14;99216.62;107678;1251;111315;-63
2023/11/24 09:10:08;;;;;;;6.30;1.70;;;;;;;13.69;36.34;99217.20;107574;1251;110123;-63
2023/11/24 09:12:37;;;;;;;4.40;1.40;;;;;;;13.63;35.68;99215.15;107625;1255;108532;-63
2023/11/24 09:15:06;;;;;;;2.10;1.70;;;;;;;13.56;36.04;99203.37;107631;1255;97931;-63
2023/11/24 09:17:35;;;;;;;3.90;1.80;;;;;;;13.46;36.09;99196.04;107663;1251;97925;-62
2023/11/24 09:20:08;;;;;;;3.40;2.00;;;;;;;13.41;35.89;99200.73;107691;1250;111827;-62
2023/11/24 09:22:36;;;;;;;3.30;1.70;;;;;;;13.40;36.04;99196.55;107653;1250;110000;-62
2023/11/24 09:25:08;;;;;;;8.40;1.60;;;;;;;13.38;35.57;99196.20;107557;1253;107870;-64
2023/11/24 09:27:40;;;;;;;2.70;1.60;;;;;;;13.58;35.66;99191.23;107615;1254;97875;-63
2023/11/24 09:30:10;;;;;;;3.50;1.50;;;;;;;13.90;34.88;99193.27;107594;1253;97847;-62
2023/11/24 09:32:41;;;;;;;3.10;1.50;;;;;;;14.18;35.09;99190.93;107634;1251;110482;-62
2023/11/24 09:35:10;;;;;;;4.60;1.50;;;;;;;14.38;34.69;99187.71;107646;1253;109949;-63
2023/11/24 09:37:39;;;;;;;2.50;1.70;;;;;;;14.65;34.40;99180.40;107617;1251;107166;-62
2023/11/24 09:40:13;;;;;;;2.80;1.70;;;;;;;15.16;33.02;99184.74;107581;1253;97870;-63
2023/11/24 09:42:46;;;;;;;3.70;1.70;;;;;;;15.85;32.09;99185.36;107581;1253;97911;-63
2023/11/24 09:45:22;;;;;;;2.70;1.30;;;;;;;16.08;31.97;99173.14;107615;1254;111737;-63
2023/11/24 09:47:52;;;;;;;7.10;1.60;;;;;;;15.95;31.72;99166.66;107638;1253;110987;-64
2023/11/24 09:50:25;;;;;;;2.60;1.40;;;;;;;15.66;31.73;99163.93;107647;1251;107860;-62
2023/11/24 09:52:57;;;;;;;2.90;1.50;;;;;;;15.40;32.04;99160.85;107582;1253;97777;-64
2023/11/24 09:55:28;;;;;;;3.20;1.70;;;;;;;15.44;32.03;99157.23;107595;1252;97928;-64
2023/11/24 09:57:58;;;;;;;4.10;1.60;;;;;;;15.23;31.79;99157.98;107634;1251;112157;-61
2023/11/24 10:00:27;;;;;;;3.30;1.60;;;;;;;14.95;31.93;99163.90;107610;1255;109864;-62
2023/11/24 10:03:00;;;;;;;4.70;1.60;;;;;;;14.75;32.33;99152.61;107579;1253;107655;-64
2023/11/24 10:05:29;;;;;;;4.40;1.60;;;;;;;14.63;32.44;99142.08;107669;1251;97818;-62
2023/11/24 10:08:00;;;;;;;4.30;2.30;;;;;;;14.54;33.18;99141.26;107615;1253;97718;-61
2023/11/24 10:10:29;;;;;;;3.80;2.10;;;;;;;14.50;33.35;99142.06;107532;1253;111914;-61
2023/11/24 10:13:01;;;;;;;5.10;1.70;;;;;;;14.79;33.50;99140.95;107295;1251;525465;-61
2023/11/24 10:15:30;;;;;;;3.50;1.90;;;;;;;14.90;32.99;99140.14;107629;1252;108835;-62
2023/11/24 10:17:59;;;;;;;8.50;2.00;;;;;;;14.53;32.67;99145.58;107602;1251;97903;-62
2023/11/24 10:20:30;;;;;;;6.20;1.60;;;;;;;14.00;33.28;99138.65;107564;1252;97906;-61
2023/11/24 10:23:00;;;;;;;4.50;1.60;;;;;;;13.68;33.94;99131.78;107591;1253;112155;-61
2023/11/24 10:25:33;;;;;;;2.40;1.30;;;;;;;13.43;34.17;99127.52;107634;1253;109834;-62
2023/11/24 10:28:07;;;;;;;3.30;1.40;;;;;;;13.16;34.24;99136.15;107581;1254;108420;-62
2023/11/24 10:30:36;;;;;;;2.40;1.40;;;;;;;12.77;34.91;99122.37;107613;1251;97842;-61
2023/11/24 10:33:05;;;;;;;2.30;1.30;;;;;;;12.55;35.37;99123.31;107629;1251;98367;-62
2023/11/24 10:35:34;;;;;;;2.40;1.60;;;;;;;12.32;35.82;99122.74;107639;1251;112284;-61
2023/11/24 10:38:04;;;;;;;3.70;1.50;;;;;;;12.15;36.32;99121.49;107566;1253;110301;-61
2023/11/24 10:40:33;;;;;;;4.10;1.60;;;;;;;12.01;36.51;99119.13;107616;1252;108819;-61
2023/11/24 10:43:03;;;;;;;5.60;1.80;;;;;;;11.87;36.79;99112.59;107567;1253;97802;-62
2023/11/24 10:45:34;;;;;;;6.40;2.00;;;;;;;11.83;37.17;99111.11;107647;1251;97808;-62
2023/11/24 10:48:33;;;;;;;5.30;1.80;;;;;;;11.77;36.90;99111.89;107597;1252;111907;-62
2023/11/24 10:51:27;;;;;;;3.40;1.60;;;;;;;11.66;37.07;99112.86;107596;1253;110476;-62
2023/11/24 10:54:02;;;;;;;2.20;1.30;;;;;;;11.56;37.31;99109.65;107460;1251;108183;-61
2023/11/24 10:56:35;;;;;;;3.60;1.70;;;;;;;11.44;37.33;99117.64;107595;1253;97761;-61
2023/11/24 10:59:07;;;;;;;4.90;2.00;;;;;;;11.30;37.58;99106.36;107599;1251;98358;-61
2023/11/24 11:01:35;;;;;;;6.20;1.80;;;;;;;11.22;37.91;99097.91;107600;1253;110531;-62
2023/11/24 11:04:05;;;;;;;5.00;1.30;;;;;;;11.15;37.88;99097.48;107520;1252;110398;-61
2023/11/24 11:07:07;;;;;;;2.70;1.80;;;;;;;11.20;37.98;99091.38;107618;1252;107645;-59
2023/11/24 11:09:48;;;;;;;3.20;1.70;;;;;;;11.21;38.33;99096.98;107573;1255;97924;-59
2023/11/24 11:12:30;;;;;;;4.00;2.40;;;;;;;11.15;38.21;99098.63;107646;1251;97698;-61
2023/11/24 11:14:59;;;;;;;7.70;2.20;;;;;;;11.06;38.33;99096.23;107698;1253;111211;-60
2023/11/24 11:17:28;;;;;;;5.50;2.40;;;;;;;11.02;38.05;99102.78;107646;1252;109084;-61
2023/11/24 11:20:02;;;;;;;8.70;2.50;;;;;;;10.93;38.05;99107.52;107552;1252;107445;-60
2023/11/24 11:22:36;;;;;;;6.00;2.30;;;;;;;10.91;38.27;99105.86;107554;1251;97820;-61
2023/11/24 11:25:14;;;;;;;6.40;2.10;;;;;;;10.83;38.07;99110.16;107618;1251;97731;-62
2023/11/24 11:27:45;;;;;;;3.70;1.90;;;;;;;10.81;38.31;99109.50;107622;1254;112637;-61
2023/11/24 11:30:22;;;;;;;6.00;2.40;;;;;;;10.80;38.37;99105.30;107639;1251;108853;-60
2023/11/24 11:33:24;;;;;;;7.20;2.50;;;;;;;10.78;38.61;99106.14;107630;1250;108621;-60
2023/11/24 11:36:05;;;;;;;3.90;2.30;;;;;;;10.78;38.72;99110.94;107446;1251;97852;-60
2023/11/24 11:38:43;;;;;;;4.60;2.40;;;;;;;10.81;38.83;99101.95;107579;1252;97829;-62